Time;durP1;ratioP1;P1;durP2;ratioP2;P2;SDS_P1;SDS_P2;PMS_P1;PMS_P2;Temp;Humidity;BMP_temperature;BMP_pressure;BME280_temperature;BME280_humidity;BME280_pressure;Samples;Min_cycle;Max_cycle;Signal;HPM_P1;HPM_P2
2023/03/10 04:23:46;;;;;;;;;;;;;;;;;;;;;
2023/03/10 04:30:37;;;;;;;;;;;;;;;;;;;;;
2023/03/10 05:52:38;;;;;;;;;;;;;;;;;;;;;
2023/03/10 05:56:09;;;;;;;;;;;;;;;;;;;;;
2023/03/10 10:06:02;;;;;;;;;;;;;;;-145.06;100.00;60892.56;5957649;23;19943;-91
2023/03/10 10:08:46;;;;;;;;;;;;;;;-145.06;100.00;60892.56;5957823;23;19916;-92
2023/03/10 10:11:33;;;;;;;;;;;;;;;-145.06;100.00;60892.56;5958494;23;19908;-92
2023/03/10 10:45:43;;;;;;;;;;;;;;;-145.06;100.00;60892.56;5845131;23;19953;-91
2023/03/10 10:48:51;;;;;;;;;;;;;;;-145.06;100.00;60892.56;5812750;23;19910;-91
2023/03/10 10:52:01;;;;;;;;;;;;;;;;;;;;;
2023/03/10 10:55:14;;;;;;;;;;;;;;;-145.06;100.00;60892.56;5818060;23;19914;-92
2023/03/10 11:05:20;;;;;;;;;;;;;;;-145.06;100.00;60892.56;5817475;23;19910;-91
2023/03/10 13:18:24;;;;;;;;;;;;;;;-145.06;100.00;60892.56;5978559;23;19920;-94
2023/03/10 13:24:59;;;;;;;;;;;;;;;-145.06;100.00;60892.56;5960194;23;19908;-93
2023/03/10 13:27:54;;;;;;;;;;;;;;;-145.06;100.00;60892.56;5977507;23;19948;-92
2023/03/10 13:45:32;;;;;;;;;;;;;;;;;;;;;
2023/03/10 14:04:10;;;;;;;;;;;;;;;-145.06;100.00;60892.56;5957517;23;19908;-91
2023/03/10 14:17:28;;;;;;;;;;;;;;;-145.06;100.00;60892.56;5930104;23;19913;-92
2023/03/10 14:52:52;;;;;;;;;;;;;;;-145.06;100.00;60892.56;5989065;23;19908;-91
2023/03/10 14:55:46;;;;;;;;;;;;;;;;;;;;;
2023/03/10 15:02:31;;;;;;;;;;;;;;;;;;;;;
2023/03/10 15:11:00;;;;;;;;;;;;;;;-145.06;100.00;60892.56;5974330;23;19995;-91
2023/03/10 15:17:16;;;;;;;;;;;;;;;;;;;;;
2023/03/10 15:20:15;;;;;;;;;;;;;;;-145.06;100.00;60892.56;5960143;23;19912;-91
2023/03/10 16:08:28;;;;;;;;;;;;;;;-145.06;100.00;60892.56;5872179;23;19909;-91
2023/03/10 16:15:22;;;;;;;;;;;;;;;-145.06;100.00;60892.56;5872350;23;20278;-91
2023/03/10 16:21:53;;;;;;;;;;;;;;;-145.06;100.00;60892.56;5872571;23;20234;-91
2023/03/10 16:24:38;;;;;;;;;;;;;;;-145.06;100.00;60892.56;5842488;23;19929;-90
2023/03/10 16:27:22;;;;;;;;;;;;;;;-145.06;100.00;60892.56;5956751;23;19908;-91
2023/03/10 16:30:05;;;;;;;;;;;;;;;-145.06;100.00;60892.56;5956788;23;19905;-91
2023/03/10 16:32:45;;;;;;;;;;;;;;;-145.06;100.00;60892.56;5955888;23;19908;-91
2023/03/10 16:35:24;;;;;;;;;;;;;;;-145.06;100.00;60892.56;5956485;23;19991;-90
2023/03/10 16:38:06;;;;;;;;;;;;;;;-145.06;100.00;60892.56;5955938;23;19913;-91
2023/03/10 16:40:52;;;;;;;;;;;;;;;-145.06;100.00;60892.56;5956443;23;20319;-91
2023/03/10 16:43:32;;;;;;;;;;;;;;;-145.06;100.00;60892.56;5954321;23;19946;-90
2023/03/10 16:46:13;;;;;;;;;;;;;;;-145.06;100.00;60892.56;5950840;23;20252;-89
2023/03/10 16:48:52;;;;;;;;;;;;;;;-145.06;100.00;60892.56;5949645;23;20216;-89
2023/03/10 16:51:36;;;;;;;;;;;;;;;-145.06;100.00;60892.56;5952247;23;19983;-90
2023/03/10 16:54:20;;;;;;;;;;;;;;;-145.06;100.00;60892.56;5950048;23;19912;-91
2023/03/10 16:57:00;;;;;;;;;;;;;;;-145.06;100.00;60892.56;5953103;23;19995;-91
2023/03/10 16:59:39;;;;;;;;;;;;;;;-145.06;100.00;60892.56;5951489;23;19912;-89
2023/03/10 17:02:18;;;;;;;;;;;;;;;-145.06;100.00;60892.56;5951093;23;19909;-90
2023/03/10 17:04:57;;;;;;;;;;;;;;;-145.06;100.00;60892.56;5949188;23;20683;-90
2023/03/10 17:07:37;;;;;;;;;;;;;;;-145.06;100.00;60892.56;5950186;23;19908;-90
2023/03/10 17:10:16;;;;;;;;;;;;;;;-145.06;100.00;60892.56;5951248;23;20319;-90
2023/03/10 17:12:55;;;;;;;;;;;;;;;-145.06;100.00;60892.56;5951428;23;19983;-89
2023/03/10 17:15:34;;;;;;;;;;;;;;;-145.06;100.00;60892.56;5950418;23;19912;-90
2023/03/10 17:18:13;;;;;;;;;;;;;;;-145.06;100.00;60892.56;5950495;23;19912;-90
2023/03/10 17:20:52;;;;;;;;;;;;;;;-145.06;100.00;60892.56;5975350;23;19956;-91
2023/03/10 17:23:33;;;;;;;;;;;;;;;-145.06;100.00;60892.56;5953534;23;19908;-91
2023/03/10 17:26:12;;;;;;;;;;;;;;;-145.06;100.00;60892.56;5952244;23;19912;-90
2023/03/10 17:28:52;;;;;;;;;;;;;;;-145.06;100.00;60892.56;5954574;23;20233;-90
2023/03/10 17:31:30;;;;;;;;;;;;;;;-145.06;100.00;60892.56;5955273;23;19908;-91
2023/03/10 17:34:11;;;;;;;;;;;;;;;-145.06;100.00;60892.56;5951825;23;19921;-90
2023/03/10 17:36:50;;;;;;;;;;;;;;;-145.06;100.00;60892.56;5954687;23;19944;-93
2023/03/10 17:39:30;;;;;;;;;;;;;;;-145.06;100.00;60892.56;5951291;23;19908;-89
2023/03/10 17:42:09;;;;;;;;;;;;;;;-145.06;100.00;60892.56;5951322;23;19908;-90
2023/03/10 17:44:51;;;;;;;;;;;;;;;-145.06;100.00;60892.56;5950473;23;19908;-90
2023/03/10 17:47:40;;;;;;;;;;;;;;;-145.06;100.00;60892.56;5950663;23;19934;-93
2023/03/10 17:50:21;;;;;;;;;;;;;;;-145.06;100.00;60892.56;5948239;23;19916;-92
2023/03/10 17:53:00;;;;;;;;;;;;;;;-145.06;100.00;60892.56;5949997;23;19979;-89
2023/03/10 17:55:39;;;;;;;;;;;;;;;-145.06;100.00;60892.56;5953815;23;19916;-89
2023/03/10 17:58:18;;;;;;;;;;;;;;;-145.06;100.00;60892.56;5952631;23;19908;-90
2023/03/10 18:00:57;;;;;;;;;;;;;;;-145.06;100.00;60892.56;5951613;23;20236;-90
2023/03/10 18:03:40;;;;;;;;;;;;;;;-145.06;100.00;60892.56;5952725;23;20299;-91
2023/03/10 18:06:21;;;;;;;;;;;;;;;-145.06;100.00;60892.56;5952880;23;20469;-90
2023/03/10 18:09:01;;;;;;;;;;;;;;;-145.06;100.00;60892.56;5952472;23;19908;-89
2023/03/10 18:11:42;;;;;;;;;;;;;;;-145.06;100.00;60892.56;5951910;23;20327;-91
2023/03/10 18:14:21;;;;;;;;;;;;;;;-145.06;100.00;60892.56;5954338;23;19987;-90
2023/03/10 18:17:01;;;;;;;;;;;;;;;-145.06;100.00;60892.56;5954280;23;20323;-89
2023/03/10 18:19:40;;;;;;;;;;;;;;;-145.06;100.00;60892.56;5951296;23;19908;-89
2023/03/10 18:22:19;;;;;;;;;;;;;;;-145.06;100.00;60892.56;5948346;23;19912;-90
2023/03/10 18:25:02;;;;;;;;;;;;;;;-145.06;100.00;60892.56;5950160;23;19912;-91
2023/03/10 18:27:41;;;;;;;;;;;;;;;-145.06;100.00;60892.56;5949443;23;19908;-94
2023/03/10 18:30:20;;;;;;;;;;;;;;;-145.06;100.00;60892.56;5950770;23;19912;-88
2023/03/10 18:32:58;;;;;;;;;;;;;;;-145.06;100.00;60892.56;5950624;23;19912;-91
2023/03/10 18:35:38;;;;;;;;;;;;;;;-145.06;100.00;60892.56;5950910;23;19912;-90
2023/03/10 18:38:19;;;;;;;;;;;;;;;-145.06;100.00;60892.56;5950625;23;19909;-91
2023/03/10 18:41:00;;;;;;;;;;;;;;;-145.06;100.00;60892.56;5950391;23;19912;-91
2023/03/10 18:43:39;;;;;;;;;;;;;;;-145.06;100.00;60892.56;5980676;23;19908;-90
2023/03/10 18:46:18;;;;;;;;;;;;;;;-145.06;100.00;60892.56;5949453;23;19913;-90
2023/03/10 18:48:57;;;;;;;;;;;;;;;-145.06;100.00;60892.56;5948206;23;19912;-90
2023/03/10 18:51:36;;;;;;;;;;;;;;;-145.06;100.00;60892.56;5948913;23;20217;-89
2023/03/10 18:54:16;;;;;;;;;;;;;;;-145.06;100.00;60892.56;5948256;23;19983;-91
2023/03/10 18:56:58;;;;;;;;;;;;;;;-145.06;100.00;60892.56;5939077;23;19936;-90
2023/03/10 18:59:37;;;;;;;;;;;;;;;-145.06;100.00;60892.56;5944767;23;20041;-91
2023/03/10 19:02:16;;;;;;;;;;;;;;;-145.06;100.00;60892.56;5964410;23;19924;-91
2023/03/10 19:04:58;;;;;;;;;;;;;;;-145.06;100.00;60892.56;5943448;23;19920;-90
2023/03/10 19:07:37;;;;;;;;;;;;;;;-145.06;100.00;60892.56;5945019;23;19990;-90
2023/03/10 19:10:16;;;;;;;;;;;;;;;-145.06;100.00;60892.56;5947546;23;20357;-90
2023/03/10 19:12:55;;;;;;;;;;;;;;;-145.06;100.00;60892.56;5949102;23;19987;-90
2023/03/10 19:15:35;;;;;;;;;;;;;;;-145.06;100.00;60892.56;5948530;23;19916;-90
2023/03/10 19:18:15;;;;;;;;;;;;;;;-145.06;100.00;60892.56;5948315;23;19916;-90
2023/03/10 19:20:58;;;;;;;;;;;;;;;-145.06;100.00;60892.56;5949628;23;19983;-89
2023/03/10 19:23:37;;;;;;;;;;;;;;;-145.06;100.00;60892.56;5948449;23;19932;-90
2023/03/10 19:26:16;;;;;;;;;;;;;;;-145.06;100.00;60892.56;5949795;23;19909;-91
2023/03/10 19:28:55;;;;;;;;;;;;;;;-145.06;100.00;60892.56;5949066;23;19909;-90
2023/03/10 19:31:34;;;;;;;;;;;;;;;-145.06;100.00;60892.56;5949445;23;19912;-90
2023/03/10 19:34:13;;;;;;;;;;;;;;;-145.06;100.00;60892.56;5949332;23;19991;-89
2023/03/10 19:36:52;;;;;;;;;;;;;;;-145.06;100.00;60892.56;5947375;23;19908;-91
2023/03/10 19:39:31;;;;;;;;;;;;;;;-145.06;100.00;60892.56;5947306;23;19908;-90
2023/03/10 19:42:10;;;;;;;;;;;;;;;-145.06;100.00;60892.56;5947942;23;19912;-91
2023/03/10 19:44:49;;;;;;;;;;;;;;;-145.06;100.00;60892.56;5947758;23;19908;-91
2023/03/10 19:47:32;;;;;;;;;;;;;;;-145.06;100.00;60892.56;5946136;23;19908;-89
2023/03/10 19:50:15;;;;;;;;;;;;;;;-145.06;100.00;60892.56;5948647;23;19909;-90
2023/03/10 19:52:54;;;;;;;;;;;;;;;-145.06;100.00;60892.56;5947598;23;19912;-89
2023/03/10 19:55:33;;;;;;;;;;;;;;;-145.06;100.00;60892.56;5946921;23;19916;-89
2023/03/10 19:58:12;;;;;;;;;;;;;;;-145.06;100.00;60892.56;5947890;23;19909;-89
2023/03/10 20:00:56;;;;;;;;;;;;;;;-145.06;100.00;60892.56;5946280;23;19940;-89
2023/03/10 20:03:35;;;;;;;;;;;;;;;-145.06;100.00;60892.56;5948520;23;19912;-89
2023/03/10 20:06:14;;;;;;;;;;;;;;;-145.06;100.00;60892.56;5949878;23;19979;-90
2023/03/10 20:08:53;;;;;;;;;;;;;;;-145.06;100.00;60892.56;5947371;23;19916;-90
2023/03/10 20:11:34;;;;;;;;;;;;;;;-145.06;100.00;60892.56;5948520;23;20614;-91
2023/03/10 20:14:13;;;;;;;;;;;;;;;-145.06;100.00;60892.56;5948792;23;19983;-89
2023/03/10 20:16:52;;;;;;;;;;;;;;;-145.06;100.00;60892.56;5948115;23;19908;-90
2023/03/10 20:19:31;;;;;;;;;;;;;;;-145.06;100.00;60892.56;5948819;23;20007;-89
2023/03/10 20:22:10;;;;;;;;;;;;;;;-145.06;100.00;60892.56;5949692;23;19928;-91
2023/03/10 20:24:49;;;;;;;;;;;;;;;-145.06;100.00;60892.56;5948271;23;19909;-90
2023/03/10 20:27:28;;;;;;;;;;;;;;;-145.06;100.00;60892.56;5947561;23;19932;-90
2023/03/10 20:30:08;;;;;;;;;;;;;;;-145.06;100.00;60892.56;5949141;23;19908;-92
2023/03/10 20:32:47;;;;;;;;;;;;;;;-145.06;100.00;60892.56;5949097;23;19912;-91
2023/03/10 20:35:26;;;;;;;;;;;;;;;-145.06;100.00;60892.56;5949935;23;19916;-92
2023/03/10 20:38:06;;;;;;;;;;;;;;;-145.06;100.00;60892.56;5949317;23;20243;-89
2023/03/10 20:40:45;;;;;;;;;;;;;;;-145.06;100.00;60892.56;5948179;23;19908;-89
2023/03/10 20:43:24;;;;;;;;;;;;;;;-145.06;100.00;60892.56;5947723;23;19932;-90
2023/03/10 20:46:03;;;;;;;;;;;;;;;-145.06;100.00;60892.56;5949203;23;19912;-90
2023/03/10 20:48:42;;;;;;;;;;;;;;;-145.06;100.00;60892.56;5947706;23;19912;-91
2023/03/10 20:51:22;;;;;;;;;;;;;;;-145.06;100.00;60892.56;5948995;23;19916;-89
2023/03/10 20:54:01;;;;;;;;;;;;;;;-145.06;100.00;60892.56;5949743;23;19908;-90
2023/03/10 20:56:40;;;;;;;;;;;;;;;-145.06;100.00;60892.56;5948597;23;19916;-91
2023/03/10 20:59:19;;;;;;;;;;;;;;;-145.06;100.00;60892.56;5948227;23;19908;-90
2023/03/10 21:01:58;;;;;;;;;;;;;;;-145.06;100.00;60892.56;5951179;23;19912;-91
2023/03/10 21:04:37;;;;;;;;;;;;;;;-145.06;100.00;60892.56;5949923;23;20379;-90
2023/03/10 21:07:16;;;;;;;;;;;;;;;-145.06;100.00;60892.56;5951311;23;19935;-90
2023/03/10 21:09:56;;;;;;;;;;;;;;;-145.06;100.00;60892.56;5949131;23;19932;-90
2023/03/10 21:12:35;;;;;;;;;;;;;;;-145.06;100.00;60892.56;5951110;23;19979;-90
2023/03/10 21:15:15;;;;;;;;;;;;;;;-145.06;100.00;60892.56;5950156;23;20217;-90
2023/03/10 21:17:55;;;;;;;;;;;;;;;-145.06;100.00;60892.56;5981060;23;19979;-90
2023/03/10 21:20:34;;;;;;;;;;;;;;;-145.06;100.00;60892.56;5950084;23;19934;-90
2023/03/10 21:23:13;;;;;;;;;;;;;;;-145.06;100.00;60892.56;5947810;23;19916;-90
2023/03/10 21:25:52;;;;;;;;;;;;;;;-145.06;100.00;60892.56;5950714;23;19909;-90
2023/03/10 21:28:31;;;;;;;;;;;;;;;-145.06;100.00;60892.56;5949435;23;19943;-90
2023/03/10 21:31:10;;;;;;;;;;;;;;;-145.06;100.00;60892.56;5951089;23;19912;-90
2023/03/10 21:33:49;;;;;;;;;;;;;;;-145.06;100.00;60892.56;5951078;23;19908;-91
2023/03/10 21:36:28;;;;;;;;;;;;;;;-145.06;100.00;60892.56;5950111;23;19948;-90
2023/03/10 21:39:07;;;;;;;;;;;;;;;-145.06;100.00;60892.56;5949198;23;19908;-91
2023/03/10 21:41:46;;;;;;;;;;;;;;;-145.06;100.00;60892.56;5949316;23;20057;-91
2023/03/10 21:44:25;;;;;;;;;;;;;;;-145.06;100.00;60892.56;5950413;23;19908;-90
2023/03/10 21:47:04;;;;;;;;;;;;;;;-145.06;100.00;60892.56;5950906;23;19912;-89
2023/03/10 21:49:43;;;;;;;;;;;;;;;-145.06;100.00;60892.56;5949609;23;20327;-91
2023/03/10 21:52:22;;;;;;;;;;;;;;;-145.06;100.00;60892.56;5950083;23;19908;-89
2023/03/10 21:55:02;;;;;;;;;;;;;;;-145.06;100.00;60892.56;5949358;23;19920;-90
2023/03/10 21:57:40;;;;;;;;;;;;;;;-145.06;100.00;60892.56;5947855;23;20351;-90
2023/03/10 22:00:21;;;;;;;;;;;;;;;-145.06;100.00;60892.56;5949060;23;19979;-90
2023/03/10 22:03:01;;;;;;;;;;;;;;;-145.06;100.00;60892.56;5947838;23;19935;-92
2023/03/10 22:05:40;;;;;;;;;;;;;;;-145.06;100.00;60892.56;5949092;23;19912;-92
2023/03/10 22:08:20;;;;;;;;;;;;;;;-145.06;100.00;60892.56;5949183;23;20323;-90
2023/03/10 22:10:59;;;;;;;;;;;;;;;-145.06;100.00;60892.56;5949958;23;19908;-90
2023/03/10 22:13:38;;;;;;;;;;;;;;;-145.06;100.00;60892.56;5950373;23;19909;-91
2023/03/10 22:16:17;;;;;;;;;;;;;;;-145.06;100.00;60892.56;5950199;23;19920;-90
2023/03/10 22:18:56;;;;;;;;;;;;;;;-145.06;100.00;60892.56;5970973;23;20500;-90
2023/03/10 22:21:35;;;;;;;;;;;;;;;-145.06;100.00;60892.56;5951082;23;19908;-91
2023/03/10 22:24:14;;;;;;;;;;;;;;;-145.06;100.00;60892.56;5949447;23;19912;-90
2023/03/10 22:26:53;;;;;;;;;;;;;;;-145.06;100.00;60892.56;5950952;23;19912;-90
2023/03/10 22:29:32;;;;;;;;;;;;;;;-145.06;100.00;60892.56;5950155;23;19908;-90
2023/03/10 22:32:11;;;;;;;;;;;;;;;-145.06;100.00;60892.56;5949111;23;19975;-90
2023/03/10 22:34:50;;;;;;;;;;;;;;;-145.06;100.00;60892.56;5949567;23;19916;-91
2023/03/10 22:37:29;;;;;;;;;;;;;;;-145.06;100.00;60892.56;5949944;23;19987;-92
2023/03/10 22:40:12;;;;;;;;;;;;;;;-145.06;100.00;60892.56;5949417;23;19908;-91
2023/03/10 22:42:51;;;;;;;;;;;;;;;-145.06;100.00;60892.56;5951508;23;19912;-90
2023/03/10 22:45:31;;;;;;;;;;;;;;;-145.06;100.00;60892.56;5951091;23;20212;-91
2023/03/10 22:48:10;;;;;;;;;;;;;;;-145.06;100.00;60892.56;5951303;23;19908;-90
2023/03/10 22:50:49;;;;;;;;;;;;;;;-145.06;100.00;60892.56;5952537;23;19916;-91
2023/03/10 22:53:28;;;;;;;;;;;;;;;-145.06;100.00;60892.56;5952358;23;19979;-90
2023/03/10 22:56:07;;;;;;;;;;;;;;;-145.06;100.00;60892.56;5952051;23;20232;-91
2023/03/10 22:58:46;;;;;;;;;;;;;;;-145.06;100.00;60892.56;5952237;23;19916;-90
2023/03/10 23:01:25;;;;;;;;;;;;;;;-145.06;100.00;60892.56;5951913;23;20018;-90
2023/03/10 23:04:04;;;;;;;;;;;;;;;-145.06;100.00;60892.56;5983448;23;19916;-91
2023/03/10 23:06:43;;;;;;;;;;;;;;;-145.06;100.00;60892.56;5953451;23;20220;-92
2023/03/10 23:09:22;;;;;;;;;;;;;;;-145.06;100.00;60892.56;5952406;23;19908;-92
2023/03/10 23:12:01;;;;;;;;;;;;;;;-145.06;100.00;60892.56;5953030;23;19984;-90
2023/03/10 23:14:40;;;;;;;;;;;;;;;-145.06;100.00;60892.56;5953114;23;19916;-91
2023/03/10 23:17:19;;;;;;;;;;;;;;;-145.06;100.00;60892.56;5951125;23;19908;-90
2023/03/10 23:19:58;;;;;;;;;;;;;;;-145.06;100.00;60892.56;5953607;23;20315;-90
2023/03/10 23:22:37;;;;;;;;;;;;;;;-145.06;100.00;60892.56;5952180;23;19908;-90
2023/03/10 23:25:18;;;;;;;;;;;;;;;-145.06;100.00;60892.56;5952614;23;19908;-91
2023/03/10 23:27:57;;;;;;;;;;;;;;;-145.06;100.00;60892.56;5951946;23;19932;-91
2023/03/10 23:30:37;;;;;;;;;;;;;;;-145.06;100.00;60892.56;5952041;23;20320;-90
2023/03/10 23:33:18;;;;;;;;;;;;;;;-145.06;100.00;60892.56;5952616;23;19908;-91
2023/03/10 23:35:57;;;;;;;;;;;;;;;-145.06;100.00;60892.56;5952160;23;19913;-90
2023/03/10 23:38:37;;;;;;;;;;;;;;;-145.06;100.00;60892.56;5952179;23;19908;-89
2023/03/10 23:41:17;;;;;;;;;;;;;;;-145.06;100.00;60892.56;5952065;23;19908;-91
2023/03/10 23:43:56;;;;;;;;;;;;;;;-145.06;100.00;60892.56;5951307;23;20362;-91
2023/03/10 23:46:35;;;;;;;;;;;;;;;-145.06;100.00;60892.56;5953388;23;19908;-91
2023/03/10 23:49:14;;;;;;;;;;;;;;;-145.06;100.00;60892.56;5953349;23;19912;-91
2023/03/10 23:51:53;;;;;;;;;;;;;;;-145.06;100.00;60892.56;5953012;23;19912;-90
2023/03/10 23:54:32;;;;;;;;;;;;;;;-145.06;100.00;60892.56;5952117;23;19912;-90
2023/03/10 23:57:11;;;;;;;;;;;;;;;-145.06;100.00;60892.56;5952137;23;19908;-91
2023/03/10 23:59:51;;;;;;;;;;;;;;;-145.06;100.00;60892.56;5953451;23;19912;-90
